KLHM/LHM METAR and TAF weather

Enter ICAO airport designator
Station Type Date Time Source
KLHM METAR 2019/06/17 04:55 UTC NOAA

KLHM 170455Z AUTO 16006KT 10SM CLR 22/14 A2972 RMK AO1


Station Type Date Time Source
KLHM Decoded METAR 2019/06/17 04:55 UTC NOAA

Station name not available
Jun 17, 2019 - 12:55 AM EDT / 2019.06.17 0455 UTC
Wind: from the SSE (160 degrees) at 7 MPH (6 KT):0
Visibility: 10 mile(s):0
Sky conditions: clear
Temperature: 71 F (22 C)
Dew Point: 57 F (14 C)
Relative Humidity: 60%
Pressure (altimeter): 29.72 in. Hg (1006 hPa)
ob: KLHM 170455Z AUTO 16006KT 10SM CLR 22/14 A2972 RMK AO1
cycle: 5

Station Type Date Time Source
KLHM TAF UTC NOAA

Error!

Example: see airport list